sensor_id;sensor_type;location;lat;lon;timestamp;temperature;humidity
1063;DHT22;520;50.932;6.962;2023-02-28T00:02:31;4.30;78.20
1063;DHT22;520;50.932;6.962;2023-02-28T00:05:12;4.20;78.30
1063;DHT22;520;50.932;6.962;2023-02-28T00:07:44;4.20;78.40
1063;DHT22;520;50.932;6.962;2023-02-28T00:10:39;4.20;78.40
1063;DHT22;520;50.932;6.962;2023-02-28T00:13:16;4.10;78.60
1063;DHT22;520;50.932;6.962;2023-02-28T00:16:08;4.20;78.60
1063;DHT22;520;50.932;6.962;2023-02-28T00:18:46;4.20;78.40
1063;DHT22;520;50.932;6.962;2023-02-28T00:21:25;4.10;78.60
1063;DHT22;520;50.932;6.962;2023-02-28T00:23:59;4.10;79.80
1063;DHT22;520;50.932;6.962;2023-02-28T00:26:31;4.00;80.50
1063;DHT22;520;50.932;6.962;2023-02-28T00:29:08;4.10;81.20
1063;DHT22;520;50.932;6.962;2023-02-28T00:31:38;3.90;80.90
1063;DHT22;520;50.932;6.962;2023-02-28T00:34:26;4.00;81.60
1063;DHT22;520;50.932;6.962;2023-02-28T00:37:22;4.10;81.70
1063;DHT22;520;50.932;6.962;2023-02-28T00:39:53;4.00;81.10
1063;DHT22;520;50.932;6.962;2023-02-28T00:42:34;4.00;81.10
1063;DHT22;520;50.932;6.962;2023-02-28T00:45:14;4.10;81.20
1063;DHT22;520;50.932;6.962;2023-02-28T00:47:42;4.00;81.40
1063;DHT22;520;50.932;6.962;2023-02-28T00:50:45;4.00;81.50
1063;DHT22;520;50.932;6.962;2023-02-28T00:53:22;4.00;81.60
1063;DHT22;520;50.932;6.962;2023-02-28T00:55:56;4.00;81.70
1063;DHT22;520;50.932;6.962;2023-02-28T00:58:28;4.10;82.10
1063;DHT22;520;50.932;6.962;2023-02-28T01:00:58;4.00;82.00
1063;DHT22;520;50.932;6.962;2023-02-28T01:03:44;3.90;81.60
1063;DHT22;520;50.932;6.962;2023-02-28T01:06:16;3.90;81.70
1063;DHT22;520;50.932;6.962;2023-02-28T01:09:14;4.00;82.10
1063;DHT22;520;50.932;6.962;2023-02-28T01:11:45;3.90;81.10
1063;DHT22;520;50.932;6.962;2023-02-28T01:14:35;3.90;81.40
1063;DHT22;520;50.932;6.962;2023-02-28T01:17:12;3.80;81.30
1063;DHT22;520;50.932;6.962;2023-02-28T01:19:47;3.80;81.70
1063;DHT22;520;50.932;6.962;2023-02-28T01:22:21;3.70;81.90
1063;DHT22;520;50.932;6.962;2023-02-28T01:24:49;3.70;82.50
1063;DHT22;520;50.932;6.962;2023-02-28T01:27:26;3.70;82.20
1063;DHT22;520;50.932;6.962;2023-02-28T01:30:03;3.70;82.00
1063;DHT22;520;50.932;6.962;2023-02-28T01:32:41;3.60;82.10
1063;DHT22;520;50.932;6.962;2023-02-28T01:35:08;3.70;82.70
1063;DHT22;520;50.932;6.962;2023-02-28T01:37:44;3.70;83.10
1063;DHT22;520;50.932;6.962;2023-02-28T01:43:49;3.80;83.80
1063;DHT22;520;50.932;6.962;2023-02-28T01:46:26;3.70;83.60
1063;DHT22;520;50.932;6.962;2023-02-28T01:49:13;3.80;82.80
1063;DHT22;520;50.932;6.962;2023-02-28T01:51:57;3.70;82.60
1063;DHT22;520;50.932;6.962;2023-02-28T01:54:31;3.70;83.50
1063;DHT22;520;50.932;6.962;2023-02-28T01:57:06;3.70;83.70
1063;DHT22;520;50.932;6.962;2023-02-28T01:59:45;3.70;84.20
1063;DHT22;520;50.932;6.962;2023-02-28T02:02:30;3.70;83.90
1063;DHT22;520;50.932;6.962;2023-02-28T02:05:08;3.70;83.40
1063;DHT22;520;50.932;6.962;2023-02-28T02:07:54;3.70;82.50
1063;DHT22;520;50.932;6.962;2023-02-28T02:10:48;3.70;82.50
1063;DHT22;520;50.932;6.962;2023-02-28T02:16:48;3.70;83.30
1063;DHT22;520;50.932;6.962;2023-02-28T02:19:53;3.60;83.10
1063;DHT22;520;50.932;6.962;2023-02-28T02:22:42;3.60;83.10
1063;DHT22;520;50.932;6.962;2023-02-28T02:25:39;3.50;83.20
1063;DHT22;520;50.932;6.962;2023-02-28T02:40:53;3.60;83.20
1063;DHT22;520;50.932;6.962;2023-02-28T02:43:29;3.50;82.70
1063;DHT22;520;50.932;6.962;2023-02-28T02:46:04;3.50;82.90
1063;DHT22;520;50.932;6.962;2023-02-28T02:48:35;3.70;82.80
1063;DHT22;520;50.932;6.962;2023-02-28T02:51:24;3.80;81.70
1063;DHT22;520;50.932;6.962;2023-02-28T02:54:22;3.70;79.40
1063;DHT22;520;50.932;6.962;2023-02-28T02:56:53;3.50;78.80
1063;DHT22;520;50.932;6.962;2023-02-28T02:59:28;3.50;79.00
1063;DHT22;520;50.932;6.962;2023-02-28T03:02:07;3.50;77.80
1063;DHT22;520;50.932;6.962;2023-02-28T03:04:51;3.30;78.30
1063;DHT22;520;50.932;6.962;2023-02-28T03:07:20;3.40;78.90
1063;DHT22;520;50.932;6.962;2023-02-28T03:09:51;3.40;78.10
1063;DHT22;520;50.932;6.962;2023-02-28T03:12:44;3.50;77.90
1063;DHT22;520;50.932;6.962;2023-02-28T03:15:49;3.40;77.50
1063;DHT22;520;50.932;6.962;2023-02-28T03:21:32;3.50;77.10
1063;DHT22;520;50.932;6.962;2023-02-28T03:24:27;3.40;77.40
1063;DHT22;520;50.932;6.962;2023-02-28T03:29:53;3.40;76.30
1063;DHT22;520;50.932;6.962;2023-02-28T03:35:22;3.10;77.30
1063;DHT22;520;50.932;6.962;2023-02-28T03:38:00;3.20;77.90
1063;DHT22;520;50.932;6.962;2023-02-28T03:40:36;3.30;78.40
1063;DHT22;520;50.932;6.962;2023-02-28T03:43:12;3.40;77.50
1063;DHT22;520;50.932;6.962;2023-02-28T03:45:44;3.30;76.70
1063;DHT22;520;50.932;6.962;2023-02-28T03:48:21;3.50;76.00
1063;DHT22;520;50.932;6.962;2023-02-28T03:50:55;3.40;75.10
1063;DHT22;520;50.932;6.962;2023-02-28T03:53:34;3.40;74.60
1063;DHT22;520;50.932;6.962;2023-02-28T03:56:05;3.30;75.40
1063;DHT22;520;50.932;6.962;2023-02-28T03:59:15;3.40;75.80
1063;DHT22;520;50.932;6.962;2023-02-28T04:01:51;3.50;75.90
1063;DHT22;520;50.932;6.962;2023-02-28T04:04:40;3.30;75.80
1063;DHT22;520;50.932;6.962;2023-02-28T04:07:15;3.10;76.50
1063;DHT22;520;50.932;6.962;2023-02-28T04:09:51;3.20;76.60
1063;DHT22;520;50.932;6.962;2023-02-28T04:12:26;3.20;76.80
1063;DHT22;520;50.932;6.962;2023-02-28T04:14:54;3.30;76.70
1063;DHT22;520;50.932;6.962;2023-02-28T04:17:25;3.40;76.90
1063;DHT22;520;50.932;6.962;2023-02-28T04:19:52;3.20;77.20
1063;DHT22;520;50.932;6.962;2023-02-28T04:22:24;3.00;77.60
1063;DHT22;520;50.932;6.962;2023-02-28T04:25:03;3.00;78.70
1063;DHT22;520;50.932;6.962;2023-02-28T04:27:33;3.00;79.20
1063;DHT22;520;50.932;6.962;2023-02-28T04:30:10;3.00;79.70
1063;DHT22;520;50.932;6.962;2023-02-28T04:32:43;3.00;79.90
1063;DHT22;520;50.932;6.962;2023-02-28T04:35:38;3.20;80.60
1063;DHT22;520;50.932;6.962;2023-02-28T04:38:15;3.20;80.80
1063;DHT22;520;50.932;6.962;2023-02-28T04:40:48;3.20;80.90
1063;DHT22;520;50.932;6.962;2023-02-28T04:43:26;3.20;80.90
1063;DHT22;520;50.932;6.962;2023-02-28T04:46:00;3.20;81.00
1063;DHT22;520;50.932;6.962;2023-02-28T04:48:49;3.10;81.20
1063;DHT22;520;50.932;6.962;2023-02-28T04:51:26;3.10;81.20
1063;DHT22;520;50.932;6.962;2023-02-28T04:54:17;3.00;81.20
1063;DHT22;520;50.932;6.962;2023-02-28T05:02:26;2.90;81.20
1063;DHT22;520;50.932;6.962;2023-02-28T05:05:03;2.80;81.60
1063;DHT22;520;50.932;6.962;2023-02-28T05:07:49;2.70;82.00
1063;DHT22;520;50.932;6.962;2023-02-28T05:10:22;2.80;82.30
1063;DHT22;520;50.932;6.962;2023-02-28T05:12:56;2.80;82.20
1063;DHT22;520;50.932;6.962;2023-02-28T05:15:30;2.80;81.80
1063;DHT22;520;50.932;6.962;2023-02-28T05:18:21;2.70;81.90
1063;DHT22;520;50.932;6.962;2023-02-28T05:20:53;2.60;82.40
1063;DHT22;520;50.932;6.962;2023-02-28T05:23:34;2.60;82.50
1063;DHT22;520;50.932;6.962;2023-02-28T05:26:20;2.80;83.40
1063;DHT22;520;50.932;6.962;2023-02-28T05:28:51;2.80;82.60
1063;DHT22;520;50.932;6.962;2023-02-28T05:32:07;2.80;82.20
1063;DHT22;520;50.932;6.962;2023-02-28T05:34:57;2.80;82.50
1063;DHT22;520;50.932;6.962;2023-02-28T05:37:54;2.70;82.50
1063;DHT22;520;50.932;6.962;2023-02-28T05:40:38;2.70;81.80
1063;DHT22;520;50.932;6.962;2023-02-28T05:43:23;2.70;82.10
1063;DHT22;520;50.932;6.962;2023-02-28T05:46:16;2.70;82.50
1063;DHT22;520;50.932;6.962;2023-02-28T05:49:01;2.70;81.90
1063;DHT22;520;50.932;6.962;2023-02-28T05:52:02;2.60;80.80
1063;DHT22;520;50.932;6.962;2023-02-28T05:54:36;2.70;81.50
1063;DHT22;520;50.932;6.962;2023-02-28T05:57:15;2.80;80.90
1063;DHT22;520;50.932;6.962;2023-02-28T05:59:53;2.80;80.40
1063;DHT22;520;50.932;6.962;2023-02-28T06:02:29;2.80;79.20
1063;DHT22;520;50.932;6.962;2023-02-28T06:05:17;2.80;78.90
1063;DHT22;520;50.932;6.962;2023-02-28T06:08:22;2.60;79.60
1063;DHT22;520;50.932;6.962;2023-02-28T06:11:18;2.70;79.00
1063;DHT22;520;50.932;6.962;2023-02-28T06:14:21;2.70;78.90
1063;DHT22;520;50.932;6.962;2023-02-28T06:17:35;2.80;78.20
1063;DHT22;520;50.932;6.962;2023-02-28T06:23:35;2.80;78.70
1063;DHT22;520;50.932;6.962;2023-02-28T06:26:15;2.90;78.40
1063;DHT22;520;50.932;6.962;2023-02-28T06:28:53;2.90;78.00
1063;DHT22;520;50.932;6.962;2023-02-28T06:31:40;2.80;78.00
1063;DHT22;520;50.932;6.962;2023-02-28T06:34:39;2.80;78.10
1063;DHT22;520;50.932;6.962;2023-02-28T06:37:29;2.80;78.20
1063;DHT22;520;50.932;6.962;2023-02-28T06:40:33;2.80;77.90
1063;DHT22;520;50.932;6.962;2023-02-28T06:46:36;2.80;78.20
1063;DHT22;520;50.932;6.962;2023-02-28T06:49:16;2.90;77.80
1063;DHT22;520;50.932;6.962;2023-02-28T06:51:54;3.00;76.70
1063;DHT22;520;50.932;6.962;2023-02-28T06:54:43;3.00;76.70
1063;DHT22;520;50.932;6.962;2023-02-28T06:57:20;3.00;76.80
1063;DHT22;520;50.932;6.962;2023-02-28T07:00:06;3.10;76.50
1063;DHT22;520;50.932;6.962;2023-02-28T07:02:39;3.20;75.60
1063;DHT22;520;50.932;6.962;2023-02-28T07:08:40;3.10;75.40
1063;DHT22;520;50.932;6.962;2023-02-28T07:11:15;3.20;75.80
1063;DHT22;520;50.932;6.962;2023-02-28T07:13:46;3.00;75.50
1063;DHT22;520;50.932;6.962;2023-02-28T07:16:45;3.10;75.00
1063;DHT22;520;50.932;6.962;2023-02-28T07:22:51;3.20;75.60
1063;DHT22;520;50.932;6.962;2023-02-28T07:28:33;3.40;73.70
1063;DHT22;520;50.932;6.962;2023-02-28T07:31:13;3.70;73.80
1063;DHT22;520;50.932;6.962;2023-02-28T07:33:52;6.00;71.60
1063;DHT22;520;50.932;6.962;2023-02-28T07:36:42;9.20;59.10
1063;DHT22;520;50.932;6.962;2023-02-28T07:39:28;11.20;52.10
1063;DHT22;520;50.932;6.962;2023-02-28T07:42:31;12.30;46.90
1063;DHT22;520;50.932;6.962;2023-02-28T07:45:24;12.70;44.40
1063;DHT22;520;50.932;6.962;2023-02-28T07:48:10;13.10;43.10
1063;DHT22;520;50.932;6.962;2023-02-28T07:51:09;14.00;41.70
1063;DHT22;520;50.932;6.962;2023-02-28T07:54:21;14.90;40.40
1063;DHT22;520;50.932;6.962;2023-02-28T07:57:22;13.80;39.40
1063;DHT22;520;50.932;6.962;2023-02-28T08:00:04;11.70;40.00
1063;DHT22;520;50.932;6.962;2023-02-28T08:03:03;10.70;42.60
1063;DHT22;520;50.932;6.962;2023-02-28T08:05:44;10.20;43.50
1063;DHT22;520;50.932;6.962;2023-02-28T08:11:37;8.90;45.80
1063;DHT22;520;50.932;6.962;2023-02-28T08:14:16;8.90;47.50
1063;DHT22;520;50.932;6.962;2023-02-28T08:17:16;8.70;46.30
1063;DHT22;520;50.932;6.962;2023-02-28T08:20:09;8.40;45.80
1063;DHT22;520;50.932;6.962;2023-02-28T08:22:47;7.00;46.60
1063;DHT22;520;50.932;6.962;2023-02-28T08:25:30;6.20;48.20
1063;DHT22;520;50.932;6.962;2023-02-28T08:31:58;5.40;50.10
1063;DHT22;520;50.932;6.962;2023-02-28T08:35:06;5.20;50.90
1063;DHT22;520;50.932;6.962;2023-02-28T08:37:43;5.00;51.20
1063;DHT22;520;50.932;6.962;2023-02-28T08:40:15;5.00;51.10
1063;DHT22;520;50.932;6.962;2023-02-28T08:42:55;5.10;51.70
1063;DHT22;520;50.932;6.962;2023-02-28T08:45:25;5.10;51.60
1063;DHT22;520;50.932;6.962;2023-02-28T08:48:08;5.00;51.50
1063;DHT22;520;50.932;6.962;2023-02-28T08:50:41;4.90;51.20
1063;DHT22;520;50.932;6.962;2023-02-28T08:53:32;4.90;51.20
1063;DHT22;520;50.932;6.962;2023-02-28T08:56:16;5.10;51.20
1063;DHT22;520;50.932;6.962;2023-02-28T08:58:51;5.10;50.40
1063;DHT22;520;50.932;6.962;2023-02-28T09:01:35;5.10;50.70
1063;DHT22;520;50.932;6.962;2023-02-28T09:04:23;5.10;50.30
1063;DHT22;520;50.932;6.962;2023-02-28T09:07:09;5.20;49.70
1063;DHT22;520;50.932;6.962;2023-02-28T09:09:40;5.20;50.10
1063;DHT22;520;50.932;6.962;2023-02-28T09:12:34;5.10;49.80
1063;DHT22;520;50.932;6.962;2023-02-28T09:15:28;5.20;50.10
1063;DHT22;520;50.932;6.962;2023-02-28T09:18:16;5.20;49.10
1063;DHT22;520;50.932;6.962;2023-02-28T09:20:46;5.40;48.50
1063;DHT22;520;50.932;6.962;2023-02-28T09:23:13;5.30;47.40
1063;DHT22;520;50.932;6.962;2023-02-28T09:25:51;5.40;47.90
1063;DHT22;520;50.932;6.962;2023-02-28T09:28:34;5.30;47.70
1063;DHT22;520;50.932;6.962;2023-02-28T09:31:39;5.40;48.40
1063;DHT22;520;50.932;6.962;2023-02-28T09:34:39;5.60;47.90
1063;DHT22;520;50.932;6.962;2023-02-28T09:37:37;5.60;47.60
1063;DHT22;520;50.932;6.962;2023-02-28T09:41:00;5.50;47.20
1063;DHT22;520;50.932;6.962;2023-02-28T09:43:47;5.40;47.50
1063;DHT22;520;50.932;6.962;2023-02-28T09:46:51;5.30;47.10
1063;DHT22;520;50.932;6.962;2023-02-28T09:49:40;5.30;47.90
1063;DHT22;520;50.932;6.962;2023-02-28T09:52:45;5.50;47.40
1063;DHT22;520;50.932;6.962;2023-02-28T10:09:33;9.60;43.20
1063;DHT22;520;50.932;6.962;2023-02-28T10:12:16;11.10;38.80
1063;DHT22;520;50.932;6.962;2023-02-28T10:15:53;11.40;37.90
1063;DHT22;520;50.932;6.962;2023-02-28T10:39:41;8.10;42.40
1063;DHT22;520;50.932;6.962;2023-02-28T10:46:20;7.40;43.70
1063;DHT22;520;50.932;6.962;2023-02-28T10:49:49;7.50;44.20
1063;DHT22;520;50.932;6.962;2023-02-28T11:02:38;7.40;44.70
1063;DHT22;520;50.932;6.962;2023-02-28T11:05:49;7.40;45.30
1063;DHT22;520;50.932;6.962;2023-02-28T11:08:43;7.60;45.80
1063;DHT22;520;50.932;6.962;2023-02-28T11:11:40;7.50;44.20
1063;DHT22;520;50.932;6.962;2023-02-28T11:14:49;7.40;45.00
1063;DHT22;520;50.932;6.962;2023-02-28T11:18:22;7.20;44.80
1063;DHT22;520;50.932;6.962;2023-02-28T11:21:29;7.20;44.30
1063;DHT22;520;50.932;6.962;2023-02-28T11:30:00;7.00;44.70
1063;DHT22;520;50.932;6.962;2023-02-28T11:32:48;7.00;45.30
1063;DHT22;520;50.932;6.962;2023-02-28T11:35:43;7.10;45.30
1063;DHT22;520;50.932;6.962;2023-02-28T11:38:15;7.00;44.90
1063;DHT22;520;50.932;6.962;2023-02-28T11:54:41;7.40;46.30
1063;DHT22;520;50.932;6.962;2023-02-28T12:01:25;7.50;45.30
1063;DHT22;520;50.932;6.962;2023-02-28T12:04:22;7.50;44.60
1063;DHT22;520;50.932;6.962;2023-02-28T12:26:36;7.30;45.40
1063;DHT22;520;50.932;6.962;2023-02-28T12:30:13;7.30;45.00
1063;DHT22;520;50.932;6.962;2023-02-28T12:33:09;7.30;45.50
1063;DHT22;520;50.932;6.962;2023-02-28T12:36:13;7.50;45.90
1063;DHT22;520;50.932;6.962;2023-02-28T12:39:26;7.70;45.80
1063;DHT22;520;50.932;6.962;2023-02-28T12:42:38;7.70;45.60
1063;DHT22;520;50.932;6.962;2023-02-28T12:52:01;7.90;44.80
1063;DHT22;520;50.932;6.962;2023-02-28T12:59:05;7.90;45.30
1063;DHT22;520;50.932;6.962;2023-02-28T13:09:31;8.20;45.70
1063;DHT22;520;50.932;6.962;2023-02-28T13:12:55;8.40;45.10
1063;DHT22;520;50.932;6.962;2023-02-28T14:07:08;9.70;41.20
1063;DHT22;520;50.932;6.962;2023-02-28T14:10:30;9.30;41.90
1063;DHT22;520;50.932;6.962;2023-02-28T14:17:36;8.70;42.40
1063;DHT22;520;50.932;6.962;2023-02-28T14:40:34;8.00;44.50
1063;DHT22;520;50.932;6.962;2023-02-28T14:43:36;8.10;44.80
1063;DHT22;520;50.932;6.962;2023-02-28T14:46:40;8.10;45.20
1063;DHT22;520;50.932;6.962;2023-02-28T14:49:50;8.10;45.30
1063;DHT22;520;50.932;6.962;2023-02-28T14:52:52;8.00;45.20
1063;DHT22;520;50.932;6.962;2023-02-28T14:56:40;8.20;46.00
1063;DHT22;520;50.932;6.962;2023-02-28T14:59:27;8.30;44.80
1063;DHT22;520;50.932;6.962;2023-02-28T15:02:33;8.20;44.60
1063;DHT22;520;50.932;6.962;2023-02-28T15:09:34;8.20;44.80
1063;DHT22;520;50.932;6.962;2023-02-28T15:12:54;8.30;44.70
1063;DHT22;520;50.932;6.962;2023-02-28T15:16:09;8.10;44.30
1063;DHT22;520;50.932;6.962;2023-02-28T15:23:12;8.20;44.40
1063;DHT22;520;50.932;6.962;2023-02-28T15:29:29;8.20;44.70
1063;DHT22;520;50.932;6.962;2023-02-28T15:39:22;8.10;45.80
1063;DHT22;520;50.932;6.962;2023-02-28T15:42:39;8.20;45.90
1063;DHT22;520;50.932;6.962;2023-02-28T15:46:00;8.10;44.80
1063;DHT22;520;50.932;6.962;2023-02-28T15:49:38;8.00;44.60
1063;DHT22;520;50.932;6.962;2023-02-28T15:52:44;8.20;45.70
1063;DHT22;520;50.932;6.962;2023-02-28T15:55:35;8.40;46.00
1063;DHT22;520;50.932;6.962;2023-02-28T15:58:47;8.20;44.70
1063;DHT22;520;50.932;6.962;2023-02-28T16:08:17;7.90;45.40
1063;DHT22;520;50.932;6.962;2023-02-28T16:11:16;7.90;46.60
1063;DHT22;520;50.932;6.962;2023-02-28T16:13:56;8.10;46.40
1063;DHT22;520;50.932;6.962;2023-02-28T16:16:48;8.10;46.80
1063;DHT22;520;50.932;6.962;2023-02-28T16:19:37;8.10;46.80
1063;DHT22;520;50.932;6.962;2023-02-28T16:22:11;8.20;46.60
1063;DHT22;520;50.932;6.962;2023-02-28T16:24:45;8.20;46.40
1063;DHT22;520;50.932;6.962;2023-02-28T16:27:52;8.20;46.60
1063;DHT22;520;50.932;6.962;2023-02-28T16:30:35;8.30;46.80
1063;DHT22;520;50.932;6.962;2023-02-28T16:33:24;8.30;46.10
1063;DHT22;520;50.932;6.962;2023-02-28T16:43:10;8.70;46.20
1063;DHT22;520;50.932;6.962;2023-02-28T16:46:20;8.40;45.70
1063;DHT22;520;50.932;6.962;2023-02-28T16:49:33;8.20;46.50
1063;DHT22;520;50.932;6.962;2023-02-28T16:52:25;8.20;46.60
1063;DHT22;520;50.932;6.962;2023-02-28T18:20:07;7.20;52.30
1063;DHT22;520;50.932;6.962;2023-02-28T18:31:14;7.00;55.00
1063;DHT22;520;50.932;6.962;2023-02-28T18:39:21;6.90;57.00
1063;DHT22;520;50.932;6.962;2023-02-28T18:50:07;6.70;58.10
1063;DHT22;520;50.932;6.962;2023-02-28T18:52:54;6.50;58.70
1063;DHT22;520;50.932;6.962;2023-02-28T18:55:41;6.50;59.40
1063;DHT22;520;50.932;6.962;2023-02-28T18:58:19;6.60;59.70
1063;DHT22;520;50.932;6.962;2023-02-28T19:01:00;6.50;59.70
1063;DHT22;520;50.932;6.962;2023-02-28T19:03:47;6.50;60.20
1063;DHT22;520;50.932;6.962;2023-02-28T19:09:56;6.60;60.90
1063;DHT22;520;50.932;6.962;2023-02-28T19:12:40;6.30;61.00
1063;DHT22;520;50.932;6.962;2023-02-28T19:15:16;6.40;61.90
1063;DHT22;520;50.932;6.962;2023-02-28T19:18:00;6.20;62.20
1063;DHT22;520;50.932;6.962;2023-02-28T19:20:45;6.30;62.60
1063;DHT22;520;50.932;6.962;2023-02-28T19:24:02;6.30;62.60
1063;DHT22;520;50.932;6.962;2023-02-28T19:26:41;6.10;62.90
1063;DHT22;520;50.932;6.962;2023-02-28T19:30:04;6.20;64.00
1063;DHT22;520;50.932;6.962;2023-02-28T19:32:57;6.10;64.00
1063;DHT22;520;50.932;6.962;2023-02-28T19:36:07;6.10;64.10
1063;DHT22;520;50.932;6.962;2023-02-28T19:39:44;6.20;63.40
1063;DHT22;520;50.932;6.962;2023-02-28T19:50:53;6.30;62.10
1063;DHT22;520;50.932;6.962;2023-02-28T19:53:48;6.30;62.00
1063;DHT22;520;50.932;6.962;2023-02-28T19:57:07;6.20;61.90
1063;DHT22;520;50.932;6.962;2023-02-28T20:00:14;6.10;61.90
1063;DHT22;520;50.932;6.962;2023-02-28T20:11:29;6.10;62.30
1063;DHT22;520;50.932;6.962;2023-02-28T20:14:37;6.00;62.40
1063;DHT22;520;50.932;6.962;2023-02-28T20:17:51;5.80;63.20
1063;DHT22;520;50.932;6.962;2023-02-28T20:20:29;5.80;63.30
1063;DHT22;520;50.932;6.962;2023-02-28T20:23:17;5.70;63.20
1063;DHT22;520;50.932;6.962;2023-02-28T20:26:00;5.70;63.20
1063;DHT22;520;50.932;6.962;2023-02-28T20:28:57;5.70;63.30
1063;DHT22;520;50.932;6.962;2023-02-28T20:31:28;5.70;63.30
1063;DHT22;520;50.932;6.962;2023-02-28T20:34:07;5.70;63.00
1063;DHT22;520;50.932;6.962;2023-02-28T20:36:45;5.80;63.70
1063;DHT22;520;50.932;6.962;2023-02-28T20:39:28;5.90;64.00
1063;DHT22;520;50.932;6.962;2023-02-28T20:42:15;6.10;63.90
1063;DHT22;520;50.932;6.962;2023-02-28T20:45:08;5.90;63.80
1063;DHT22;520;50.932;6.962;2023-02-28T20:47:59;5.70;64.80
1063;DHT22;520;50.932;6.962;2023-02-28T20:54:01;5.80;65.70
1063;DHT22;520;50.932;6.962;2023-02-28T20:56:37;5.80;65.10
1063;DHT22;520;50.932;6.962;2023-02-28T20:59:43;5.80;65.20
1063;DHT22;520;50.932;6.962;2023-02-28T21:02:41;5.60;65.70
1063;DHT22;520;50.932;6.962;2023-02-28T21:05:33;5.70;65.90
1063;DHT22;520;50.932;6.962;2023-02-28T21:08:21;5.60;66.10
1063;DHT22;520;50.932;6.962;2023-02-28T21:11:51;5.60;66.70
1063;DHT22;520;50.932;6.962;2023-02-28T21:14:49;5.50;66.90
1063;DHT22;520;50.932;6.962;2023-02-28T21:17:41;5.40;66.90
1063;DHT22;520;50.932;6.962;2023-02-28T21:24:13;5.20;67.70
1063;DHT22;520;50.932;6.962;2023-02-28T21:27:06;5.10;68.60
1063;DHT22;520;50.932;6.962;2023-02-28T21:29:53;5.10;68.90
1063;DHT22;520;50.932;6.962;2023-02-28T21:32:29;5.20;68.60
1063;DHT22;520;50.932;6.962;2023-02-28T21:35:08;5.10;67.70
1063;DHT22;520;50.932;6.962;2023-02-28T21:38:00;5.30;67.30
1063;DHT22;520;50.932;6.962;2023-02-28T21:40:33;5.10;67.00
1063;DHT22;520;50.932;6.962;2023-02-28T21:43:33;5.20;67.20
1063;DHT22;520;50.932;6.962;2023-02-28T21:46:20;5.30;68.00
1063;DHT22;520;50.932;6.962;2023-02-28T21:54:10;5.00;68.70
1063;DHT22;520;50.932;6.962;2023-02-28T21:57:03;5.00;68.50
1063;DHT22;520;50.932;6.962;2023-02-28T21:59:38;5.00;68.80
1063;DHT22;520;50.932;6.962;2023-02-28T22:02:13;4.90;68.90
1063;DHT22;520;50.932;6.962;2023-02-28T22:04:43;5.00;69.50
1063;DHT22;520;50.932;6.962;2023-02-28T22:28:49;5.10;70.20
1063;DHT22;520;50.932;6.962;2023-02-28T22:31:43;5.10;69.60
1063;DHT22;520;50.932;6.962;2023-02-28T22:42:12;4.70;69.90
1063;DHT22;520;50.932;6.962;2023-02-28T22:44:50;4.70;70.50
1063;DHT22;520;50.932;6.962;2023-02-28T22:50:20;4.50;71.00
1063;DHT22;520;50.932;6.962;2023-02-28T23:18:47;4.50;72.00
1063;DHT22;520;50.932;6.962;2023-02-28T23:44:14;4.50;73.90
1063;DHT22;520;50.932;6.962;2023-02-28T23:47:09;4.40;74.00
1063;DHT22;520;50.932;6.962;2023-02-28T23:53:26;4.50;72.90
1063;DHT22;520;50.932;6.962;2023-02-28T23:56:51;4.60;73.10
